createdAt,value
2023-04-01T00:00:55.776Z,11.19
2023-04-01T00:01:55.958Z,11.16
2023-04-01T00:02:55.959Z,11.16
2023-04-01T00:03:55.928Z,11.16
2023-04-01T00:04:55.753Z,11.18
2023-04-01T00:05:55.754Z,11.18
2023-04-01T00:06:55.735Z,11.20
2023-04-01T00:07:55.835Z,11.19
2023-04-01T00:08:55.756Z,11.16
2023-04-01T00:09:55.695Z,11.19
2023-04-01T00:10:55.672Z,11.15
2023-04-01T00:11:55.653Z,11.13
2023-04-01T00:12:55.639Z,11.15
2023-04-01T00:13:55.667Z,11.12
2023-04-01T00:14:55.641Z,11.10
2023-04-01T00:15:56.227Z,11.12
2023-04-01T00:16:55.781Z,11.13
2023-04-01T00:17:55.632Z,11.12
2023-04-01T00:18:55.671Z,11.12
2023-04-01T00:19:55.750Z,11.10
2023-04-01T00:20:55.564Z,11.12
2023-04-01T00:21:55.584Z,11.13
2023-04-01T00:22:55.567Z,11.07
2023-04-01T00:23:55.603Z,11.08
2023-04-01T00:24:55.537Z,11.10
2023-04-01T00:25:55.513Z,11.15
2023-04-01T00:26:55.503Z,11.08
2023-04-01T00:27:55.488Z,11.08
2023-04-01T00:28:55.488Z,11.08
2023-04-01T00:29:55.541Z,11.10
2023-04-01T00:30:55.510Z,11.12
2023-04-01T00:31:55.458Z,11.12
2023-04-01T00:32:55.523Z,11.08
2023-04-01T00:33:55.431Z,11.08
2023-04-01T00:34:55.419Z,11.08
2023-04-01T00:35:55.397Z,11.10
2023-04-01T00:36:55.389Z,11.07
2023-04-01T00:37:55.386Z,11.08
2023-04-01T00:38:55.369Z,11.07
2023-04-01T00:39:55.385Z,11.05
2023-04-01T00:40:55.365Z,11.08
2023-04-01T00:41:55.353Z,11.08
2023-04-01T00:42:55.339Z,11.08
2023-04-01T00:43:55.330Z,11.10
2023-04-01T00:44:55.358Z,11.10
2023-04-01T00:45:55.307Z,11.08
2023-04-01T00:46:55.297Z,11.08
2023-04-01T00:47:55.297Z,11.10
2023-04-01T00:48:55.267Z,11.08
2023-04-01T00:49:55.254Z,11.10
2023-04-01T00:50:55.276Z,11.05
2023-04-01T00:51:55.249Z,11.07
2023-04-01T00:52:55.206Z,11.05
2023-04-01T00:53:55.220Z,11.04
2023-04-01T00:54:55.198Z,11.05
2023-04-01T00:55:55.181Z,11.05
2023-04-01T00:56:55.221Z,11.02
2023-04-01T00:57:55.160Z,11.02
2023-04-01T00:58:55.149Z,11.04
2023-04-01T00:59:55.166Z,11.02
2023-04-01T01:00:55.267Z,11.02
2023-04-01T01:01:55.184Z,11.04
2023-04-01T01:02:55.137Z,11.02
2023-04-01T01:03:55.116Z,11.04
2023-04-01T01:04:55.143Z,11.05
2023-04-01T01:05:55.088Z,11.04
2023-04-01T01:06:55.133Z,11.04
2023-04-01T01:07:55.060Z,11.04
2023-04-01T01:08:55.038Z,11.01
2023-04-01T01:09:55.068Z,11.02
2023-04-01T01:10:55.019Z,10.97
2023-04-01T01:11:55.033Z,10.98
2023-04-01T01:12:54.999Z,11.00
2023-04-01T01:13:54.997Z,11.00
2023-04-01T01:14:54.979Z,10.97
2023-04-01T01:15:54.985Z,11.01
2023-04-01T01:16:55.092Z,11.02
2023-04-01T01:17:55.006Z,11.01
2023-04-01T01:18:54.968Z,11.00
2023-04-01T01:19:54.945Z,11.01
2023-04-01T01:20:54.935Z,11.00
2023-04-01T01:21:54.898Z,11.01
2023-04-01T01:22:54.911Z,10.98
2023-04-01T01:23:54.916Z,10.97
2023-04-01T01:24:54.912Z,11.00
2023-04-01T01:25:54.901Z,11.00
2023-04-01T01:26:54.850Z,11.00
2023-04-01T01:27:55.037Z,11.00
2023-04-01T01:28:54.821Z,10.98
2023-04-01T01:29:54.837Z,10.97
2023-04-01T01:30:54.897Z,10.97
2023-04-01T01:31:54.785Z,10.97
2023-04-01T01:32:54.809Z,11.00
2023-04-01T01:33:54.787Z,11.00
2023-04-01T01:34:54.762Z,10.97
2023-04-01T01:35:54.828Z,10.97
2023-04-01T01:36:54.736Z,10.95
2023-04-01T01:37:54.785Z,10.97
2023-04-01T01:38:54.732Z,10.97
2023-04-01T01:39:54.749Z,10.98
2023-04-01T01:40:54.769Z,10.97
2023-04-01T01:41:54.710Z,10.97
2023-04-01T01:42:54.665Z,10.92
2023-04-01T01:43:54.673Z,10.97
2023-04-01T01:44:54.663Z,10.95
2023-04-01T01:45:54.674Z,10.95
2023-04-01T01:46:54.616Z,10.95
2023-04-01T01:47:54.655Z,10.94
2023-04-01T01:48:54.596Z,10.94
2023-04-01T01:49:54.621Z,10.94
2023-04-01T01:50:54.583Z,10.95
2023-04-01T01:51:54.576Z,10.95
2023-04-01T01:52:54.604Z,10.94
2023-04-01T01:53:54.575Z,10.94
2023-04-01T01:54:54.673Z,10.94
2023-04-01T01:55:54.565Z,10.94
2023-04-01T01:56:54.561Z,10.98
2023-04-01T01:57:54.556Z,10.97
2023-04-01T01:58:54.519Z,10.95
2023-04-01T01:59:54.576Z,10.94
2023-04-01T02:00:54.492Z,10.97
2023-04-01T02:01:54.525Z,10.92
2023-04-01T02:02:54.754Z,10.92
2023-04-01T02:03:54.546Z,10.92
2023-04-01T02:04:54.569Z,10.90
2023-04-01T02:05:54.473Z,10.94
2023-04-01T02:06:54.438Z,10.92
2023-04-01T02:07:54.441Z,10.90
2023-04-01T02:08:54.460Z,10.89
2023-04-01T02:09:54.393Z,10.87
2023-04-01T02:10:54.425Z,10.87
2023-04-01T02:11:54.383Z,10.90
2023-04-01T02:12:54.421Z,10.84
2023-04-01T02:13:54.364Z,10.86
2023-04-01T02:14:54.325Z,10.84
2023-04-01T02:15:54.385Z,10.86
2023-04-01T02:16:54.315Z,10.87
2023-04-01T02:17:54.325Z,10.86
2023-04-01T02:18:54.347Z,10.86
2023-04-01T02:19:54.292Z,10.84
2023-04-01T02:20:54.267Z,10.87
2023-04-01T02:21:54.246Z,10.87
2023-04-01T02:22:54.247Z,10.86
2023-04-01T02:23:54.539Z,10.86
2023-04-01T02:24:54.224Z,10.83
2023-04-01T02:25:54.217Z,10.83
2023-04-01T02:26:54.312Z,10.84
2023-04-01T02:27:54.221Z,10.83
2023-04-01T02:28:54.173Z,10.84
2023-04-01T02:29:54.248Z,10.86
2023-04-01T02:30:54.211Z,10.84
2023-04-01T02:31:54.189Z,10.83
2023-04-01T02:32:54.235Z,10.82
2023-04-01T02:33:54.142Z,10.82
2023-04-01T02:34:54.126Z,10.82
2023-04-01T02:35:54.213Z,10.80
2023-04-01T02:36:54.142Z,10.80
2023-04-01T02:37:54.103Z,10.82
2023-04-01T02:38:54.115Z,10.80
2023-04-01T02:39:54.046Z,10.82
2023-04-01T02:40:54.057Z,10.82
2023-04-01T02:41:54.030Z,10.79
2023-04-01T02:42:54.023Z,10.79
2023-04-01T02:43:54.061Z,10.77
2023-04-01T02:44:54.094Z,10.76
2023-04-01T02:45:54.066Z,10.72
2023-04-01T02:46:54.060Z,10.72
2023-04-01T02:47:54.236Z,10.72
2023-04-01T02:48:54.058Z,10.72
2023-04-01T02:49:53.979Z,10.69
2023-04-01T02:50:53.994Z,10.69
2023-04-01T02:51:53.922Z,10.69
2023-04-01T02:52:53.997Z,10.72
2023-04-01T02:53:53.912Z,10.69
2023-04-01T02:54:53.944Z,10.69
2023-04-01T02:55:53.921Z,10.69
2023-04-01T02:56:54.002Z,10.72
2023-04-01T02:57:53.960Z,10.72
2023-04-01T02:58:53.850Z,10.75
2023-04-01T02:59:53.852Z,10.75
2023-04-01T03:00:53.971Z,10.71
2023-04-01T03:01:53.896Z,10.75
2023-04-01T03:02:53.873Z,10.72
2023-04-01T03:03:53.812Z,10.72
2023-04-01T03:04:53.883Z,10.72
2023-04-01T03:05:53.784Z,10.72
2023-04-01T03:06:53.856Z,10.75
2023-04-01T03:07:53.901Z,10.75
2023-04-01T03:08:53.859Z,10.69
2023-04-01T03:09:53.760Z,10.71
2023-04-01T03:10:53.757Z,10.71
2023-04-01T03:11:53.753Z,10.69
2023-04-01T03:12:53.800Z,10.68
2023-04-01T03:13:53.703Z,10.71
2023-04-01T03:14:53.684Z,10.69
2023-04-01T03:15:53.683Z,10.65
2023-04-01T03:16:53.774Z,10.67
2023-04-01T03:17:53.723Z,10.71
2023-04-01T03:18:53.811Z,10.68
2023-04-01T03:19:53.721Z,10.69
2023-04-01T03:20:53.664Z,10.69
2023-04-01T03:21:53.643Z,10.68
2023-04-01T03:22:53.596Z,10.68
2023-04-01T03:23:53.622Z,10.69
2023-04-01T03:24:53.617Z,10.72
2023-04-01T03:25:53.600Z,10.68
2023-04-01T03:26:53.658Z,10.71
2023-04-01T03:27:53.566Z,10.68
2023-04-01T03:28:53.534Z,10.68
2023-04-01T03:29:53.624Z,10.68
2023-04-01T03:30:53.586Z,10.69
2023-04-01T03:31:53.572Z,10.71
2023-04-01T03:32:53.625Z,10.68
2023-04-01T03:33:53.487Z,10.68
2023-04-01T03:34:53.470Z,10.68
2023-04-01T03:35:53.620Z,10.68
2023-04-01T03:36:53.462Z,10.67
2023-04-01T03:37:53.454Z,10.67
2023-04-01T03:38:53.517Z,10.65
2023-04-01T03:39:53.431Z,10.67
2023-04-01T03:40:53.417Z,10.68
2023-04-01T03:41:53.479Z,10.67
2023-04-01T03:42:53.465Z,10.65
2023-04-01T03:43:53.448Z,10.65
2023-04-01T03:44:53.427Z,10.65
2023-04-01T03:45:53.467Z,10.62
2023-04-01T03:46:53.411Z,10.65
2023-04-01T03:47:53.423Z,10.67
2023-04-01T03:48:53.323Z,10.67
2023-04-01T03:49:53.320Z,10.65
2023-04-01T03:50:53.323Z,10.65
2023-04-01T03:51:53.292Z,10.65
2023-04-01T03:52:53.286Z,10.65
2023-04-01T03:53:53.269Z,10.64
2023-04-01T03:54:53.334Z,10.65
2023-04-01T03:55:53.303Z,10.64
2023-04-01T03:56:53.352Z,10.64
2023-04-01T03:57:53.337Z,10.65
2023-04-01T03:58:53.263Z,10.65
2023-04-01T03:59:53.233Z,10.65
2023-04-01T04:00:53.246Z,10.67
2023-04-01T04:01:53.201Z,10.67
2023-04-01T04:02:53.245Z,10.67
2023-04-01T04:03:53.232Z,10.67
2023-04-01T04:04:53.258Z,10.65
2023-04-01T04:05:53.175Z,10.68
2023-04-01T04:06:53.201Z,10.64
2023-04-01T04:07:53.140Z,10.68
2023-04-01T04:08:53.137Z,10.65
2023-04-01T04:09:53.110Z,10.67
2023-04-01T04:10:53.112Z,10.64
2023-04-01T04:11:53.150Z,10.67
2023-04-01T04:12:53.099Z,10.64
2023-04-01T04:13:53.081Z,10.67
2023-04-01T04:14:53.054Z,10.67
2023-04-01T04:15:53.059Z,10.67
2023-04-01T04:16:53.044Z,10.65
2023-04-01T04:17:53.050Z,10.65
2023-04-01T04:18:53.017Z,10.67
2023-04-01T04:19:53.015Z,10.65
2023-04-01T04:20:52.994Z,10.65
2023-04-01T04:21:53.010Z,10.62
2023-04-01T04:22:53.008Z,10.61
2023-04-01T04:23:52.975Z,10.64
2023-04-01T04:24:53.049Z,10.62
2023-04-01T04:25:52.995Z,10.65
2023-04-01T04:26:52.950Z,10.64
2023-04-01T04:27:52.998Z,10.62
2023-04-01T04:28:52.935Z,10.64
2023-04-01T04:29:52.923Z,10.62
2023-04-01T04:30:52.906Z,10.62
2023-04-01T04:31:53.017Z,10.61
2023-04-01T04:32:52.918Z,10.61
2023-04-01T04:33:52.867Z,10.62
2023-04-01T04:34:52.852Z,10.59
2023-04-01T04:35:52.887Z,10.58
2023-04-01T04:36:52.831Z,10.57
2023-04-01T04:37:52.839Z,10.59
2023-04-01T04:38:52.755Z,10.59
2023-04-01T04:39:52.748Z,10.57
2023-04-01T04:40:52.733Z,10.57
2023-04-01T04:41:52.723Z,10.58
2023-04-01T04:42:52.729Z,10.61
2023-04-01T04:43:52.709Z,10.58
2023-04-01T04:44:52.683Z,10.58
2023-04-01T04:45:52.696Z,10.55
2023-04-01T04:46:52.763Z,10.53
2023-04-01T04:47:52.690Z,10.55
2023-04-01T04:48:52.635Z,10.55
2023-04-01T04:49:52.629Z,10.55
2023-04-01T04:50:52.670Z,10.53
2023-04-01T04:51:52.615Z,10.57
2023-04-01T04:52:52.605Z,10.55
2023-04-01T04:53:53.171Z,10.55
2023-04-01T04:54:52.716Z,10.55
2023-04-01T04:55:52.572Z,10.57
2023-04-01T04:56:52.611Z,10.58
2023-04-01T04:57:52.559Z,10.58
2023-04-01T04:58:52.602Z,10.55
2023-04-01T04:59:52.588Z,10.57
2023-04-01T05:00:52.637Z,10.58
2023-04-01T05:01:52.576Z,10.57
2023-04-01T05:02:52.586Z,10.55
2023-04-01T05:03:52.530Z,10.55
2023-04-01T05:04:52.573Z,10.57
2023-04-01T05:05:52.531Z,10.57
2023-04-01T05:06:52.491Z,10.55
2023-04-01T05:07:52.482Z,10.55
2023-04-01T05:08:52.453Z,10.58
2023-04-01T05:09:52.420Z,10.58
2023-04-01T05:10:52.412Z,10.57
2023-04-01T05:11:52.418Z,10.55
2023-04-01T05:12:52.407Z,10.57
2023-04-01T05:13:52.390Z,10.61
2023-04-01T05:14:52.361Z,10.55
2023-04-01T05:15:52.357Z,10.57
2023-04-01T05:16:52.375Z,10.58
2023-04-01T05:17:52.373Z,10.57
2023-04-01T05:18:52.336Z,10.57
2023-04-01T05:19:52.314Z,10.59
2023-04-01T05:20:52.310Z,10.59
2023-04-01T05:21:52.318Z,10.58
2023-04-01T05:22:52.286Z,10.58
2023-04-01T05:23:52.268Z,10.58
2023-04-01T05:24:52.275Z,10.57
2023-04-01T05:25:52.251Z,10.59
2023-04-01T05:26:52.256Z,10.59
2023-04-01T05:27:52.274Z,10.61
2023-04-01T05:28:52.247Z,10.61
2023-04-01T05:29:52.207Z,10.59
2023-04-01T05:30:52.313Z,10.62
2023-04-01T05:31:52.191Z,10.62
2023-04-01T05:32:52.235Z,10.64
2023-04-01T05:33:52.157Z,10.64
2023-04-01T05:34:52.176Z,10.64
2023-04-01T05:35:52.186Z,10.65
2023-04-01T05:36:52.135Z,10.65
2023-04-01T05:37:52.126Z,10.65
2023-04-01T05:38:52.114Z,10.68
2023-04-01T05:39:52.114Z,10.67
2023-04-01T05:40:52.096Z,10.67
2023-04-01T05:41:52.074Z,10.65
2023-04-01T05:42:52.068Z,10.68
2023-04-01T05:43:52.074Z,10.69
2023-04-01T05:44:52.058Z,10.69
2023-04-01T05:45:52.149Z,10.69
2023-04-01T05:46:52.142Z,10.69
2023-04-01T05:47:52.044Z,10.71
2023-04-01T05:48:52.014Z,10.72
2023-04-01T05:49:51.980Z,10.75
2023-04-01T05:50:52.010Z,10.71
2023-04-01T05:51:51.985Z,10.72
2023-04-01T05:52:51.975Z,10.72
2023-04-01T05:53:51.943Z,10.76
2023-04-01T05:54:51.959Z,10.75
2023-04-01T05:55:51.928Z,10.77
2023-04-01T05:56:51.963Z,10.77
2023-04-01T05:57:51.917Z,10.80
2023-04-01T05:58:51.906Z,10.79
2023-04-01T05:59:51.891Z,10.80
2023-04-01T06:01:05.892Z,10.83
2023-04-01T06:01:52.954Z,10.84
2023-04-01T06:02:51.946Z,10.83
2023-04-01T06:03:52.095Z,10.84
2023-04-01T06:04:51.938Z,10.83
2023-04-01T06:05:51.830Z,10.86
2023-04-01T06:06:51.814Z,10.89
2023-04-01T06:07:51.886Z,10.87
2023-04-01T06:08:51.831Z,10.89
2023-04-01T06:09:51.794Z,10.92
2023-04-01T06:10:51.779Z,10.92
2023-04-01T06:11:51.834Z,10.94
2023-04-01T06:12:51.752Z,10.95
2023-04-01T06:13:51.755Z,10.98
2023-04-01T06:14:51.753Z,10.95
2023-04-01T06:15:51.862Z,10.98
2023-04-01T06:16:51.707Z,11.00
2023-04-01T06:17:51.738Z,11.01
2023-04-01T06:18:51.691Z,11.04
2023-04-01T06:19:51.686Z,11.07
2023-04-01T06:20:51.679Z,11.07
2023-04-01T06:21:51.726Z,11.10
2023-04-01T06:22:51.667Z,11.12
2023-04-01T06:23:51.626Z,11.16
2023-04-01T06:24:51.699Z,11.18
2023-04-01T06:25:51.598Z,11.22
2023-04-01T06:26:51.636Z,11.22
2023-04-01T06:27:51.598Z,11.23
2023-04-01T06:28:51.670Z,11.31
2023-04-01T06:29:51.618Z,11.34
2023-04-01T06:30:51.586Z,11.34
2023-04-01T06:31:51.623Z,11.37
2023-04-01T06:32:51.832Z,11.38
2023-04-01T06:33:51.537Z,11.40
2023-04-01T06:34:51.547Z,11.40
2023-04-01T06:35:51.603Z,11.43
2023-04-01T06:36:51.533Z,11.48
2023-04-01T06:37:51.480Z,11.53
2023-04-01T06:38:51.493Z,11.56
2023-04-01T06:39:51.466Z,11.56
2023-04-01T06:40:51.446Z,11.56
2023-04-01T06:41:51.491Z,11.53
2023-04-01T06:42:51.475Z,11.52
2023-04-01T06:43:51.411Z,11.53
2023-04-01T06:44:51.450Z,11.58
2023-04-01T06:45:51.496Z,11.62
2023-04-01T06:46:51.637Z,11.62
2023-04-01T06:47:51.446Z,11.62
2023-04-01T06:48:51.414Z,11.60
2023-04-01T06:49:51.365Z,11.65
2023-04-01T06:50:51.376Z,11.63
2023-04-01T06:51:51.353Z,11.68
2023-04-01T06:52:51.325Z,11.65
2023-04-01T06:53:51.315Z,11.67
2023-04-01T06:54:51.337Z,11.67
2023-04-01T06:55:51.285Z,11.68
2023-04-01T06:56:51.311Z,11.67
2023-04-01T06:57:51.276Z,11.68
2023-04-01T06:58:51.321Z,11.65
2023-04-01T06:59:51.331Z,11.70
2023-04-01T07:00:51.282Z,11.65
2023-04-01T07:01:51.262Z,11.65
2023-04-01T07:02:51.331Z,11.65
2023-04-01T07:03:51.238Z,11.59
2023-04-01T07:04:51.269Z,11.62
2023-04-01T07:05:51.445Z,11.65
2023-04-01T07:06:51.224Z,11.67
2023-04-01T07:07:51.204Z,11.68
2023-04-01T07:08:51.188Z,11.67
2023-04-01T07:09:51.173Z,11.74
2023-04-01T07:10:51.125Z,11.74
2023-04-01T07:11:51.144Z,11.78
2023-04-01T07:12:51.132Z,11.78
2023-04-01T07:13:51.103Z,11.78
2023-04-01T07:14:51.098Z,11.77
2023-04-01T07:15:51.112Z,11.81
2023-04-01T07:16:51.128Z,11.83
2023-04-01T07:17:51.111Z,11.85
2023-04-01T07:18:51.042Z,11.81
2023-04-01T07:19:51.275Z,11.83
2023-04-01T07:20:51.041Z,11.88
2023-04-01T07:21:51.006Z,11.93
2023-04-01T07:22:51.033Z,11.97
2023-04-01T07:23:50.991Z,11.95
2023-04-01T07:24:51.003Z,11.95
2023-04-01T07:25:50.962Z,11.99
2023-04-01T07:26:50.956Z,12.03
2023-04-01T07:27:50.961Z,12.05
2023-04-01T07:28:50.955Z,12.03
2023-04-01T07:29:50.924Z,12.05
2023-04-01T07:30:50.967Z,12.03
2023-04-01T07:31:50.914Z,12.02
2023-04-01T07:32:50.960Z,12.03
2023-04-01T07:33:51.224Z,12.08
2023-04-01T07:34:50.901Z,12.05
2023-04-01T07:35:50.923Z,12.08
2023-04-01T07:36:50.877Z,12.11
2023-04-01T07:37:50.857Z,12.10
2023-04-01T07:38:50.919Z,12.08
2023-04-01T07:39:50.880Z,12.11
2023-04-01T07:40:50.922Z,12.14
2023-04-01T07:41:50.848Z,12.17
2023-04-01T07:42:50.809Z,12.17
2023-04-01T07:43:50.828Z,12.20
2023-04-01T07:44:50.785Z,12.20
2023-04-01T07:45:50.791Z,12.20
2023-04-01T07:46:50.766Z,12.23
2023-04-01T07:47:50.773Z,12.28
2023-04-01T07:48:50.731Z,12.32
2023-04-01T07:49:50.735Z,12.39
2023-04-01T07:50:51.938Z,12.43
2023-04-01T07:51:50.753Z,12.45
2023-04-01T07:52:50.664Z,12.45
2023-04-01T07:53:50.695Z,12.45
2023-04-01T07:54:50.790Z,12.44
2023-04-01T07:55:50.718Z,12.48
2023-04-01T07:56:50.694Z,12.45
2023-04-01T07:57:50.647Z,12.48
2023-04-01T07:58:50.617Z,12.43
2023-04-01T07:59:50.594Z,12.43
2023-04-01T08:00:50.614Z,12.40
2023-04-01T08:01:50.568Z,12.40
2023-04-01T08:02:50.647Z,12.40
2023-04-01T08:03:50.801Z,12.43
2023-04-01T08:04:50.664Z,12.45
2023-04-01T08:05:50.578Z,12.45
2023-04-01T08:06:50.550Z,12.43
2023-04-01T08:07:50.586Z,12.45
2023-04-01T08:08:50.497Z,12.47
2023-04-01T08:09:50.533Z,12.47
2023-04-01T08:10:50.511Z,12.45
2023-04-01T08:11:50.482Z,12.47
2023-04-01T08:12:50.445Z,12.47
2023-04-01T08:13:50.446Z,12.48
2023-04-01T08:14:50.475Z,12.47
2023-04-01T08:15:50.491Z,12.47
2023-04-01T08:16:51.155Z,12.47
2023-04-01T08:17:50.421Z,12.47
2023-04-01T08:18:50.433Z,12.40
2023-04-01T08:19:50.392Z,12.44
2023-04-01T08:20:50.405Z,12.44
2023-04-01T08:21:50.388Z,12.43
2023-04-01T08:22:50.396Z,12.45
2023-04-01T08:23:50.342Z,12.45
2023-04-01T08:24:50.318Z,12.47
2023-04-01T08:25:50.336Z,12.51
2023-04-01T08:26:50.333Z,12.57
2023-04-01T08:27:50.302Z,12.63
2023-04-01T08:28:50.271Z,12.62
2023-04-01T08:29:50.266Z,12.66
2023-04-01T08:30:50.317Z,12.65
2023-04-01T08:31:50.375Z,12.68
2023-04-01T08:32:50.321Z,12.69
2023-04-01T08:33:50.218Z,12.75
2023-04-01T08:34:50.212Z,12.78
2023-04-01T08:35:50.200Z,12.84
2023-04-01T08:36:50.208Z,12.86
2023-04-01T08:37:50.231Z,12.88
2023-04-01T08:38:50.248Z,12.93
2023-04-01T08:39:50.155Z,12.98
2023-04-01T08:40:50.165Z,13.02
2023-04-01T08:41:50.170Z,13.08
2023-04-01T08:42:50.169Z,13.09
2023-04-01T08:43:50.154Z,13.17
2023-04-01T08:44:50.203Z,13.28
2023-04-01T08:45:50.160Z,13.39
2023-04-01T08:46:50.086Z,13.43
2023-04-01T08:47:50.100Z,13.43
2023-04-01T08:48:50.047Z,13.40
2023-04-01T08:49:50.046Z,13.43
2023-04-01T08:50:50.061Z,13.47
2023-04-01T08:51:50.054Z,13.49
2023-04-01T08:52:50.027Z,13.47
2023-04-01T08:53:50.017Z,13.50
2023-04-01T08:54:49.976Z,13.47
2023-04-01T08:55:49.993Z,13.47
2023-04-01T08:56:50.119Z,13.49
2023-04-01T08:57:51.019Z,13.49
2023-04-01T08:58:49.969Z,13.45
2023-04-01T08:59:49.942Z,13.45
2023-04-01T09:00:49.930Z,13.46
2023-04-01T09:01:50.039Z,13.45
2023-04-01T09:02:50.045Z,13.49
2023-04-01T09:03:49.985Z,13.54
2023-04-01T09:04:49.893Z,13.54
2023-04-01T09:05:49.872Z,13.47
2023-04-01T09:06:49.854Z,13.50
2023-04-01T09:07:49.870Z,13.60
2023-04-01T09:08:49.835Z,13.65
2023-04-01T09:09:49.832Z,13.65
2023-04-01T09:10:49.817Z,13.64
2023-04-01T09:11:50.936Z,13.67
2023-04-01T09:12:49.783Z,13.64
2023-04-01T09:13:49.806Z,13.62
2023-04-01T09:14:49.789Z,13.62
2023-04-01T09:15:49.842Z,13.61
2023-04-01T09:16:49.761Z,13.64
2023-04-01T09:17:49.797Z,13.61
2023-04-01T09:18:49.737Z,13.61
2023-04-01T09:19:49.748Z,13.64
2023-04-01T09:20:49.705Z,13.61
2023-04-01T09:21:49.751Z,13.60
2023-04-01T09:22:49.722Z,13.61
2023-04-01T09:23:49.783Z,13.62
2023-04-01T09:24:49.678Z,13.65
2023-04-01T09:25:49.698Z,13.68
2023-04-01T09:26:49.657Z,13.67
2023-04-01T09:27:49.666Z,13.71
2023-04-01T09:28:49.619Z,13.67
2023-04-01T09:29:49.785Z,13.67
2023-04-01T09:30:49.610Z,13.71
2023-04-01T09:31:49.718Z,13.73
2023-04-01T09:32:49.621Z,13.71
2023-04-01T09:33:49.631Z,13.73
2023-04-01T09:34:49.616Z,13.73
2023-04-01T09:35:49.697Z,13.82
2023-04-01T09:36:49.544Z,13.89
2023-04-01T09:37:49.725Z,13.93
2023-04-01T09:38:49.538Z,13.93
2023-04-01T09:39:49.506Z,13.91
2023-04-01T09:40:49.517Z,13.85
2023-04-01T09:41:49.507Z,13.87
2023-04-01T09:42:49.625Z,13.85
2023-04-01T09:43:49.545Z,13.89
2023-04-01T09:44:49.508Z,13.94
2023-04-01T09:45:49.513Z,14.00
2023-04-01T09:46:49.534Z,14.07
2023-04-01T09:47:49.681Z,14.12
2023-04-01T09:48:49.487Z,14.12
2023-04-01T09:49:49.533Z,14.13
2023-04-01T09:50:50.243Z,14.16
2023-04-01T09:51:49.446Z,14.28
2023-04-01T09:52:49.465Z,14.34
2023-04-01T09:53:49.390Z,14.44
2023-04-01T09:54:49.439Z,14.45
2023-04-01T09:55:49.406Z,14.52
2023-04-01T09:56:49.363Z,14.58
2023-04-01T09:57:49.355Z,14.62
2023-04-01T09:58:49.334Z,14.63
2023-04-01T09:59:49.330Z,14.63
2023-04-01T10:00:49.539Z,14.61
2023-04-01T10:01:49.354Z,14.62
2023-04-01T10:02:49.347Z,14.68
2023-04-01T10:03:49.321Z,14.74
2023-04-01T10:04:49.323Z,14.79
2023-04-01T10:05:49.385Z,14.93
2023-04-01T10:06:49.349Z,15.10
2023-04-01T10:07:49.296Z,15.29
2023-04-01T10:08:49.321Z,15.45
2023-04-01T10:09:49.263Z,15.55
2023-04-01T10:10:49.259Z,15.69
2023-04-01T10:11:49.239Z,15.78
2023-04-01T10:12:49.221Z,15.80
2023-04-01T10:13:49.274Z,15.80
2023-04-01T10:14:49.185Z,15.83
2023-04-01T10:15:49.205Z,15.81
2023-04-01T10:16:50.103Z,15.80
2023-04-01T10:17:49.248Z,15.90
2023-04-01T10:18:49.200Z,15.98
2023-04-01T10:19:49.132Z,16.10
2023-04-01T10:20:49.120Z,16.22
2023-04-01T10:21:49.099Z,16.44
2023-04-01T10:22:49.135Z,16.59
2023-04-01T10:23:49.106Z,16.66
2023-04-01T10:24:49.119Z,16.72
2023-04-01T10:25:49.068Z,16.69
2023-04-01T10:26:49.050Z,16.62
2023-04-01T10:27:49.058Z,16.51
2023-04-01T10:28:49.100Z,16.37
2023-04-01T10:29:49.005Z,16.28
2023-04-01T10:30:49.027Z,16.17
2023-04-01T10:31:49.173Z,16.13
2023-04-01T10:32:49.057Z,16.09
2023-04-01T10:33:48.967Z,16.09
2023-04-01T10:34:48.946Z,16.02
2023-04-01T10:35:49.034Z,15.91
2023-04-01T10:36:48.950Z,15.92
2023-04-01T10:37:48.928Z,15.99
2023-04-01T10:38:48.933Z,16.09
2023-04-01T10:39:48.920Z,16.26
2023-04-01T10:40:48.906Z,16.32
2023-04-01T10:41:48.926Z,16.41
2023-04-01T10:42:48.868Z,16.54
2023-04-01T10:43:48.864Z,16.64
2023-04-01T10:44:48.882Z,16.65
2023-04-01T10:45:48.934Z,16.59
2023-04-01T10:46:48.848Z,16.50
2023-04-01T10:47:48.978Z,16.41
2023-04-01T10:48:48.791Z,16.31
2023-04-01T10:49:48.770Z,16.22
2023-04-01T10:50:48.789Z,16.12
2023-04-01T10:51:48.743Z,16.03
2023-04-01T10:52:48.775Z,16.00
2023-04-01T10:53:48.725Z,15.90
2023-04-01T10:54:48.720Z,15.78
2023-04-01T10:55:48.718Z,15.78
2023-04-01T10:56:48.686Z,15.76
2023-04-01T10:57:48.672Z,15.80
2023-04-01T10:58:48.729Z,15.84
2023-04-01T10:59:48.666Z,15.98
2023-04-01T11:00:48.735Z,16.13
2023-04-01T11:01:54.926Z,16.36
2023-04-01T11:02:49.757Z,16.54
2023-04-01T11:03:49.008Z,16.62
2023-04-01T11:04:48.641Z,16.68
2023-04-01T11:05:48.617Z,16.73
2023-04-01T11:06:48.586Z,16.72
2023-04-01T11:08:02.848Z,16.62
2023-04-01T11:08:49.630Z,16.49
2023-04-01T11:09:48.537Z,16.41
2023-04-01T11:10:48.553Z,16.26
2023-04-01T11:11:48.539Z,16.10
2023-04-01T11:12:48.513Z,15.98
2023-04-01T11:13:48.546Z,15.94
2023-04-01T11:14:48.485Z,15.94
2023-04-01T11:15:48.535Z,16.02
2023-04-01T11:16:48.450Z,16.09
2023-04-01T11:17:48.540Z,16.22
2023-04-01T11:18:48.457Z,16.44
2023-04-01T11:19:48.446Z,16.79
2023-04-01T11:20:48.409Z,17.13
2023-04-01T11:21:48.410Z,17.49
2023-04-01T11:22:48.389Z,17.82
2023-04-01T11:24:01.830Z,18.06
2023-04-01T11:24:49.361Z,18.23
2023-04-01T11:25:48.364Z,18.49
2023-04-01T11:26:48.384Z,18.86
2023-04-01T11:27:48.361Z,19.24
2023-04-01T11:28:48.388Z,19.53
2023-04-01T11:29:59.131Z,19.75
2023-04-01T11:30:49.303Z,19.94
2023-04-01T11:31:48.454Z,20.07
2023-04-01T11:32:48.334Z,20.22
2023-04-01T11:33:48.780Z,20.12
2023-04-01T11:34:48.302Z,19.90
2023-04-01T11:35:48.274Z,19.70
2023-04-01T11:36:48.364Z,19.45
2023-04-01T11:37:48.221Z,19.23
2023-04-01T11:38:48.260Z,18.97
2023-04-01T11:39:48.251Z,18.81
2023-04-01T11:40:48.180Z,18.66
2023-04-01T11:41:48.209Z,18.60
2023-04-01T11:42:48.214Z,18.51
2023-04-01T11:43:48.184Z,18.39
2023-04-01T11:44:48.158Z,18.19
2023-04-01T11:45:48.243Z,17.98
2023-04-01T11:46:48.331Z,17.79
2023-04-01T11:47:48.177Z,17.60
2023-04-01T11:48:48.129Z,17.46
2023-04-01T11:49:48.116Z,17.28
2023-04-01T11:50:48.107Z,17.16
2023-04-01T11:51:48.065Z,17.04
2023-04-01T11:52:48.056Z,16.97
2023-04-01T11:53:48.134Z,16.87
2023-04-01T11:54:48.083Z,16.79
2023-04-01T11:55:50.361Z,16.73
2023-04-01T11:56:48.023Z,16.65
2023-04-01T11:57:48.023Z,16.61
2023-04-01T11:58:48.010Z,16.55
2023-04-01T11:59:47.989Z,16.49
2023-04-01T12:00:48.033Z,16.41
2023-04-01T12:01:48.002Z,16.36
2023-04-01T12:02:48.106Z,16.28
2023-04-01T12:03:48.150Z,16.25
2023-04-01T12:04:48.027Z,16.16
2023-04-01T12:05:47.946Z,16.16
2023-04-01T12:06:47.945Z,16.08
2023-04-01T12:07:47.955Z,16.08
2023-04-01T12:08:47.890Z,16.08
2023-04-01T12:09:47.905Z,16.06
2023-04-01T12:10:47.871Z,16.05
2023-04-01T12:11:47.866Z,16.10
2023-04-01T12:13:00.034Z,16.13
2023-04-01T12:13:48.862Z,16.22
2023-04-01T12:14:47.837Z,16.26
2023-04-01T12:15:47.814Z,16.32
2023-04-01T12:16:47.867Z,16.37
2023-04-01T12:17:47.945Z,16.43
2023-04-01T12:18:47.815Z,16.50
2023-04-01T12:19:47.773Z,16.57
2023-04-01T12:20:47.774Z,16.61
2023-04-01T12:21:47.790Z,16.68
2023-04-01T12:22:47.754Z,16.72
2023-04-01T12:23:47.758Z,16.82
2023-04-01T12:24:47.749Z,16.83
2023-04-01T12:25:47.700Z,16.91
2023-04-01T12:26:47.726Z,16.94
2023-04-01T12:27:47.680Z,17.01
2023-04-01T12:28:47.711Z,17.09
2023-04-01T12:29:47.679Z,17.10
2023-04-01T12:30:47.690Z,17.16
2023-04-01T12:31:47.675Z,17.27
2023-04-01T12:32:47.749Z,17.32
2023-04-01T12:33:47.632Z,17.39
2023-04-01T12:34:47.649Z,17.46
2023-04-01T12:35:47.631Z,17.56
2023-04-01T12:36:48.779Z,17.63
2023-04-01T12:37:47.594Z,17.68
2023-04-01T12:38:47.720Z,17.76
2023-04-01T12:39:47.598Z,17.79
2023-04-01T12:40:47.557Z,17.82
2023-04-01T12:41:47.555Z,17.88
2023-04-01T12:42:47.586Z,17.94
2023-04-01T12:43:47.539Z,17.97
2023-04-01T12:44:47.507Z,18.02
2023-04-01T12:45:47.514Z,18.09
2023-04-01T12:46:47.474Z,18.15
2023-04-01T12:47:47.506Z,18.13
2023-04-01T12:48:47.469Z,18.24
2023-04-01T12:49:47.437Z,18.15
2023-04-01T12:50:47.632Z,18.11
2023-04-01T12:51:47.484Z,18.12
2023-04-01T12:52:47.441Z,18.12